createdAt,value
2019-01-23T00:00:29.099Z,15.43
2019-01-23T00:01:09.715Z,15.41
2019-01-23T00:02:59.777Z,15.36
2019-01-23T00:03:40.369Z,15.35
2019-01-23T00:04:20.971Z,15.41
2019-01-23T00:05:01.644Z,15.43
2019-01-23T00:05:42.227Z,15.43
2019-01-23T00:06:22.826Z,15.39
2019-01-23T00:07:03.425Z,15.41
2019-01-23T00:07:44.037Z,15.36
2019-01-23T00:08:24.639Z,15.43
2019-01-23T00:09:05.249Z,15.41
2019-01-23T00:09:45.848Z,15.36
2019-01-23T00:10:26.442Z,15.35
2019-01-23T00:11:07.033Z,15.36
2019-01-23T00:11:47.654Z,15.34
2019-01-23T00:12:28.251Z,15.41
2019-01-23T00:13:08.859Z,15.32
2019-01-23T00:13:49.445Z,15.32
2019-01-23T00:14:30.065Z,15.39
2019-01-23T00:15:10.666Z,15.36
2019-01-23T00:15:51.281Z,15.32
2019-01-23T00:16:31.877Z,15.38
2019-01-23T00:17:12.466Z,15.39
2019-01-23T00:17:53.071Z,15.44
2019-01-23T00:18:33.663Z,15.41
2019-01-23T00:19:14.269Z,15.39
2019-01-23T00:19:54.877Z,15.41
2019-01-23T00:20:35.467Z,15.32
2019-01-23T00:21:16.077Z,15.41
2019-01-23T00:21:56.681Z,15.41
2019-01-23T00:22:37.315Z,15.46
2019-01-23T00:23:17.923Z,15.32
2019-01-23T00:23:58.520Z,15.38
2019-01-23T00:24:39.133Z,15.35
2019-01-23T00:25:19.731Z,15.43
2019-01-23T00:26:00.360Z,15.41
2019-01-23T00:26:40.935Z,15.36
2019-01-23T00:27:21.547Z,15.43
2019-01-23T00:28:02.139Z,15.41
2019-01-23T00:28:42.753Z,15.32
2019-01-23T00:29:23.381Z,15.41
2019-01-23T00:30:03.981Z,15.44
2019-01-23T00:30:44.593Z,15.39
2019-01-23T00:31:25.215Z,15.43
2019-01-23T00:32:05.828Z,15.38
2019-01-23T00:32:46.427Z,15.34
2019-01-23T00:33:27.031Z,15.41
2019-01-23T00:34:07.661Z,15.41
2019-01-23T00:34:48.266Z,15.41
2019-01-23T00:35:28.937Z,15.39
2019-01-23T00:36:09.541Z,15.41
2019-01-23T00:36:50.137Z,15.41
2019-01-23T00:37:30.745Z,15.31
2019-01-23T00:38:11.345Z,15.28
2019-01-23T00:38:51.995Z,15.43
2019-01-23T00:39:32.605Z,15.39
2019-01-23T00:40:13.217Z,15.44
2019-01-23T00:40:53.815Z,15.43
2019-01-23T00:41:34.423Z,15.35
2019-01-23T00:42:15.017Z,15.47
2019-01-23T00:42:55.611Z,15.34
2019-01-23T00:43:36.215Z,15.41
2019-01-23T00:44:16.813Z,15.32
2019-01-23T00:44:57.461Z,15.35
2019-01-23T00:45:38.088Z,15.39
2019-01-23T00:46:18.699Z,15.34
2019-01-23T00:46:59.320Z,15.32
2019-01-23T00:47:39.925Z,15.41
2019-01-23T00:48:20.517Z,15.41
2019-01-23T00:49:01.115Z,15.41
2019-01-23T00:49:41.725Z,15.39
2019-01-23T00:50:22.335Z,15.29
2019-01-23T00:51:02.929Z,15.32
2019-01-23T00:51:43.541Z,15.41
2019-01-23T00:52:24.153Z,15.32
2019-01-23T00:53:04.771Z,15.43
2019-01-23T00:53:45.366Z,15.36
2019-01-23T00:54:25.983Z,15.29
2019-01-23T00:55:06.589Z,15.41
2019-01-23T00:55:47.205Z,15.41
2019-01-23T00:56:27.843Z,15.34
2019-01-23T00:57:08.463Z,15.39
2019-01-23T00:57:49.053Z,15.32
2019-01-23T00:58:29.656Z,15.41
2019-01-23T00:59:10.255Z,15.43
2019-01-23T00:59:50.867Z,15.41
2019-01-23T01:00:31.455Z,15.28
2019-01-23T01:01:12.050Z,15.43
2019-01-23T01:01:52.649Z,15.35
2019-01-23T01:02:33.267Z,15.29
2019-01-23T01:03:13.888Z,15.39
2019-01-23T01:03:54.491Z,15.41
2019-01-23T01:04:35.116Z,15.34
2019-01-23T01:05:15.729Z,15.35
2019-01-23T01:05:56.327Z,15.44
2019-01-23T01:06:36.961Z,15.34
2019-01-23T01:07:17.577Z,15.32
2019-01-23T01:07:58.199Z,15.39
2019-01-23T01:08:38.793Z,15.41
2019-01-23T01:09:19.447Z,15.34
2019-01-23T01:10:00.075Z,15.32
2019-01-23T01:10:40.672Z,15.35
2019-01-23T01:11:21.272Z,15.39
2019-01-23T01:12:01.868Z,15.39
2019-01-23T01:12:42.501Z,15.32
2019-01-23T01:13:23.119Z,15.35
2019-01-23T01:14:03.735Z,15.43
2019-01-23T01:14:44.357Z,15.32
2019-01-23T01:15:25.031Z,15.32
2019-01-23T01:16:05.646Z,15.32
2019-01-23T01:16:46.245Z,15.29
2019-01-23T01:17:26.857Z,15.34
2019-01-23T01:18:07.457Z,15.29
2019-01-23T01:18:48.079Z,15.35
2019-01-23T01:19:28.661Z,15.29
2019-01-23T01:20:09.266Z,15.34
2019-01-23T01:20:49.913Z,15.34
2019-01-23T01:21:30.555Z,15.28
2019-01-23T01:22:11.179Z,15.29
2019-01-23T01:22:51.813Z,15.35
2019-01-23T01:23:32.435Z,15.32
2019-01-23T01:24:13.051Z,15.43
2019-01-23T01:24:53.657Z,15.35
2019-01-23T01:25:34.263Z,15.29
2019-01-23T01:26:14.883Z,15.29
2019-01-23T01:26:55.529Z,15.28
2019-01-23T01:27:36.143Z,15.34
2019-01-23T01:28:16.755Z,15.31
2019-01-23T01:28:57.366Z,15.29
2019-01-23T01:29:37.981Z,15.32
2019-01-23T01:30:18.598Z,15.32
2019-01-23T01:30:59.239Z,15.32
2019-01-23T01:31:39.863Z,15.29
2019-01-23T01:32:20.477Z,15.35
2019-01-23T01:33:01.132Z,15.32
2019-01-23T01:33:41.735Z,15.28
2019-01-23T01:34:22.351Z,15.32
2019-01-23T01:35:02.969Z,15.31
2019-01-23T01:35:43.566Z,15.38
2019-01-23T01:36:24.185Z,15.34
2019-01-23T01:37:04.787Z,15.31
2019-01-23T01:37:45.389Z,15.32
2019-01-23T01:38:25.983Z,15.31
2019-01-23T01:39:06.611Z,15.34
2019-01-23T01:39:47.227Z,15.35
2019-01-23T01:40:27.827Z,15.29
2019-01-23T01:41:08.475Z,15.32
2019-01-23T01:41:49.098Z,15.38
2019-01-23T01:42:29.689Z,15.41
2019-01-23T01:43:10.287Z,15.34
2019-01-23T01:43:50.923Z,15.34
2019-01-23T01:44:31.531Z,15.34
2019-01-23T01:45:12.144Z,15.31
2019-01-23T01:45:52.747Z,15.34
2019-01-23T01:46:33.349Z,15.29
2019-01-23T01:47:13.973Z,15.32
2019-01-23T01:47:54.593Z,15.31
2019-01-23T01:48:35.212Z,15.29
2019-01-23T01:49:15.833Z,15.36
2019-01-23T01:49:56.451Z,15.29
2019-01-23T01:50:37.059Z,15.32
2019-01-23T01:51:17.661Z,15.43
2019-01-23T01:51:58.261Z,15.32
2019-01-23T01:52:38.849Z,15.32
2019-01-23T01:53:19.467Z,15.35
2019-01-23T01:54:00.087Z,15.41
2019-01-23T01:54:40.701Z,15.43
2019-01-23T01:55:21.306Z,15.41
2019-01-23T01:56:01.941Z,15.29
2019-01-23T01:56:42.555Z,15.41
2019-01-23T01:57:23.166Z,15.32
2019-01-23T01:58:03.769Z,15.29
2019-01-23T01:58:44.392Z,15.35
2019-01-23T01:59:24.998Z,15.35
2019-01-23T02:00:05.621Z,15.32
2019-01-23T02:00:46.237Z,15.31
2019-01-23T02:01:26.866Z,15.28
2019-01-23T02:02:07.467Z,15.27
2019-01-23T02:02:48.059Z,15.35
2019-01-23T02:03:28.671Z,15.32
2019-01-23T02:04:09.289Z,15.32
2019-01-23T02:04:49.911Z,15.31
2019-01-23T02:05:30.507Z,15.31
2019-01-23T02:06:11.115Z,15.35
2019-01-23T02:06:51.733Z,15.41
2019-01-23T02:07:32.387Z,15.28
2019-01-23T02:08:13.002Z,15.31
2019-01-23T02:08:53.619Z,15.35
2019-01-23T02:09:35.502Z,15.41
2019-01-23T02:10:14.831Z,15.32
2019-01-23T02:10:55.433Z,15.32
2019-01-23T02:11:36.045Z,15.34
2019-01-23T02:12:16.649Z,15.29
2019-01-23T02:12:57.253Z,15.38
2019-01-23T02:13:37.857Z,15.35
2019-01-23T02:14:18.481Z,15.32
2019-01-23T02:14:59.090Z,15.34
2019-01-23T02:15:39.693Z,15.43
2019-01-23T02:16:20.303Z,15.29
2019-01-23T02:17:00.895Z,15.32
2019-01-23T02:17:41.495Z,15.29
2019-01-23T02:18:22.095Z,15.32
2019-01-23T02:19:02.690Z,15.35
2019-01-23T02:19:43.299Z,15.32
2019-01-23T02:20:23.909Z,15.29
2019-01-23T02:21:04.527Z,15.31
2019-01-23T02:21:45.151Z,15.29
2019-01-23T02:22:25.767Z,15.29
2019-01-23T02:23:06.375Z,15.34
2019-01-23T02:23:46.973Z,15.32
2019-01-23T02:24:27.589Z,15.41
2019-01-23T02:25:08.219Z,15.32
2019-01-23T02:25:48.837Z,15.32
2019-01-23T02:26:29.443Z,15.39
2019-01-23T02:27:10.075Z,15.32
2019-01-23T02:27:50.692Z,15.29
2019-01-23T02:28:31.290Z,15.34
2019-01-23T02:29:11.930Z,15.34
2019-01-23T02:29:52.535Z,15.29
2019-01-23T02:30:33.158Z,15.31
2019-01-23T02:31:13.762Z,15.32
2019-01-23T02:31:54.366Z,15.44
2019-01-23T02:32:34.988Z,15.25
2019-01-23T02:33:15.603Z,15.34
2019-01-23T02:33:56.228Z,15.32
2019-01-23T02:34:36.849Z,15.44
2019-01-23T02:35:17.469Z,15.41
2019-01-23T02:35:58.077Z,15.29
2019-01-23T02:36:38.704Z,15.25
2019-01-23T02:37:19.313Z,15.28
2019-01-23T02:37:59.921Z,15.31
2019-01-23T02:38:40.522Z,15.32
2019-01-23T02:39:21.129Z,15.29
2019-01-23T02:40:01.761Z,15.32
2019-01-23T02:40:42.377Z,15.32
2019-01-23T02:41:22.973Z,15.32
2019-01-23T02:42:03.589Z,15.32
2019-01-23T02:42:44.195Z,15.29
2019-01-23T02:43:24.845Z,15.32
2019-01-23T02:44:05.461Z,15.36
2019-01-23T02:44:46.084Z,15.32
2019-01-23T02:45:26.745Z,15.31
2019-01-23T02:46:07.363Z,15.29
2019-01-23T02:46:47.959Z,15.32
2019-01-23T02:47:28.599Z,15.31
2019-01-23T02:48:09.233Z,15.25
2019-01-23T02:48:49.857Z,15.29
2019-01-23T02:49:30.501Z,15.34
2019-01-23T02:50:11.105Z,15.31
2019-01-23T02:50:51.730Z,15.38
2019-01-23T02:51:32.335Z,15.35
2019-01-23T02:52:12.933Z,15.32
2019-01-23T02:53:04.771Z,15.41
2019-01-23T02:53:45.375Z,15.29
2019-01-23T02:54:25.990Z,15.29
2019-01-23T02:55:06.585Z,15.31
2019-01-23T02:55:47.195Z,15.34
2019-01-23T02:56:27.795Z,15.32
2019-01-23T02:57:08.445Z,15.28
2019-01-23T02:57:49.051Z,15.29
2019-01-23T02:58:29.655Z,15.32
2019-01-23T02:59:17.157Z,15.32
2019-01-23T02:59:50.907Z,15.32
2019-01-23T03:00:31.547Z,15.28
2019-01-23T03:01:12.176Z,15.41
2019-01-23T03:01:52.793Z,15.31
2019-01-23T03:02:33.417Z,15.36
2019-01-23T03:03:14.019Z,15.29
2019-01-23T03:03:54.631Z,15.31
2019-01-23T03:04:35.227Z,15.32
2019-01-23T03:05:15.829Z,15.32
2019-01-23T03:05:56.480Z,15.31
2019-01-23T03:06:37.090Z,15.38
2019-01-23T03:07:17.703Z,15.39
2019-01-23T03:07:58.329Z,15.31
2019-01-23T03:08:38.927Z,15.29
2019-01-23T03:09:19.533Z,15.32
2019-01-23T03:10:00.233Z,15.29
2019-01-23T03:10:40.729Z,15.25
2019-01-23T03:11:21.389Z,15.31
2019-01-23T03:12:02.005Z,15.32
2019-01-23T03:12:42.641Z,15.35
2019-01-23T03:13:23.255Z,15.31
2019-01-23T03:14:03.863Z,15.32
2019-01-23T03:14:44.461Z,15.35
2019-01-23T03:15:25.062Z,15.32
2019-01-23T03:16:05.668Z,15.38
2019-01-23T03:16:46.274Z,15.32
2019-01-23T03:17:26.932Z,15.41
2019-01-23T03:18:07.538Z,15.32
2019-01-23T03:18:48.132Z,15.32
2019-01-23T03:19:28.772Z,15.32
2019-01-23T03:20:09.404Z,15.27
2019-01-23T03:20:50.004Z,15.35
2019-01-23T03:21:30.654Z,15.32
2019-01-23T03:22:11.264Z,15.32
2019-01-23T03:22:51.862Z,15.36
2019-01-23T03:23:32.491Z,15.29
2019-01-23T03:24:13.093Z,15.29
2019-01-23T03:24:53.700Z,15.31
2019-01-23T03:25:34.298Z,15.29
2019-01-23T03:26:14.928Z,15.29
2019-01-23T03:26:55.590Z,15.39
2019-01-23T03:27:36.199Z,15.31
2019-01-23T03:28:16.834Z,15.29
2019-01-23T03:28:57.435Z,15.29
2019-01-23T03:29:38.035Z,15.34
2019-01-23T03:30:18.653Z,15.31
2019-01-23T03:30:59.262Z,15.34
2019-01-23T03:31:39.902Z,15.28
2019-01-23T03:32:20.512Z,15.31
2019-01-23T03:33:01.125Z,15.31
2019-01-23T03:33:41.812Z,15.31
2019-01-23T03:34:22.428Z,15.31
2019-01-23T03:35:03.027Z,15.28
2019-01-23T03:35:43.647Z,15.29
2019-01-23T03:36:24.252Z,15.29
2019-01-23T03:37:04.865Z,15.31
2019-01-23T03:37:45.447Z,15.29
2019-01-23T03:38:26.067Z,15.32
2019-01-23T03:39:06.678Z,15.29
2019-01-23T03:39:47.277Z,15.31
2019-01-23T03:40:27.874Z,15.35
2019-01-23T03:41:08.472Z,15.29
2019-01-23T03:41:49.070Z,15.28
2019-01-23T03:42:29.680Z,15.31
2019-01-23T03:43:10.281Z,15.31
2019-01-23T03:43:50.880Z,15.28
2019-01-23T03:44:31.494Z,15.36
2019-01-23T03:45:12.119Z,15.32
2019-01-23T03:45:52.726Z,15.29
2019-01-23T03:46:33.346Z,15.31
2019-01-23T03:47:13.942Z,15.32
2019-01-23T03:47:54.560Z,15.38
2019-01-23T03:48:35.212Z,15.29
2019-01-23T03:49:15.820Z,15.36
2019-01-23T03:49:56.484Z,15.34
2019-01-23T03:50:37.076Z,15.29
2019-01-23T03:51:17.681Z,15.32
2019-01-23T03:51:58.299Z,15.29
2019-01-23T03:52:38.905Z,15.31
2019-01-23T03:53:19.516Z,15.28
2019-01-23T03:54:00.125Z,15.29
2019-01-23T03:54:40.734Z,15.32
2019-01-23T03:55:21.350Z,15.31
2019-01-23T03:56:02.000Z,15.34
2019-01-23T03:56:42.595Z,15.29
2019-01-23T03:57:23.210Z,15.32
2019-01-23T03:58:03.827Z,15.28
2019-01-23T03:58:44.434Z,15.29
2019-01-23T03:59:32.009Z,15.29
2019-01-23T04:00:05.662Z,15.35
2019-01-23T04:00:46.272Z,15.35
2019-01-23T04:01:26.882Z,15.31
2019-01-23T04:02:07.521Z,15.29
2019-01-23T04:02:48.124Z,15.31
2019-01-23T04:03:28.744Z,15.34
2019-01-23T04:04:09.352Z,15.31
2019-01-23T04:04:49.954Z,15.28
2019-01-23T04:05:31.128Z,15.29
2019-01-23T04:06:11.192Z,15.28
2019-01-23T04:06:51.814Z,15.28
2019-01-23T04:07:32.424Z,15.35
2019-01-23T04:08:13.062Z,15.29
2019-01-23T04:08:53.680Z,15.28
2019-01-23T04:09:34.313Z,15.32
2019-01-23T04:10:14.924Z,15.34
2019-01-23T04:10:55.564Z,15.31
2019-01-23T04:11:36.178Z,15.31
2019-01-23T04:12:16.798Z,15.28
2019-01-23T04:12:57.411Z,15.31
2019-01-23T04:13:38.081Z,15.25
2019-01-23T04:14:18.696Z,15.28
2019-01-23T04:14:59.311Z,15.35
2019-01-23T04:15:39.920Z,15.34
2019-01-23T04:16:20.532Z,15.28
2019-01-23T04:17:01.134Z,15.28
2019-01-23T04:17:41.735Z,15.25
2019-01-23T04:18:22.326Z,15.31
2019-01-23T04:19:02.997Z,15.29
2019-01-23T04:19:43.616Z,15.31
2019-01-23T04:20:24.230Z,15.31
2019-01-23T04:21:04.869Z,15.28
2019-01-23T04:21:45.484Z,15.35
2019-01-23T04:22:26.093Z,15.31
2019-01-23T04:23:06.722Z,15.34
2019-01-23T04:23:47.316Z,15.29
2019-01-23T04:24:27.928Z,15.34
2019-01-23T04:25:08.558Z,15.31
2019-01-23T04:25:49.162Z,15.31
2019-01-23T04:26:29.774Z,15.32
2019-01-23T04:27:10.394Z,15.34
2019-01-23T04:27:51.003Z,15.34
2019-01-23T04:28:31.603Z,15.35
2019-01-23T04:29:12.214Z,15.31
2019-01-23T04:29:52.853Z,15.28
2019-01-23T04:30:33.491Z,15.34
2019-01-23T04:31:14.095Z,15.31
2019-01-23T04:31:54.708Z,15.29
2019-01-23T04:32:35.314Z,15.28
2019-01-23T04:33:15.929Z,15.29
2019-01-23T04:33:56.570Z,15.25
2019-01-23T04:34:37.170Z,15.31
2019-01-23T04:35:17.790Z,15.32
2019-01-23T04:35:58.430Z,15.25
2019-01-23T04:36:39.028Z,15.29
2019-01-23T04:37:19.656Z,15.29
2019-01-23T04:38:00.269Z,15.29
2019-01-23T04:38:40.880Z,15.31
2019-01-23T04:39:21.478Z,15.36
2019-01-23T04:40:02.091Z,15.36
2019-01-23T04:40:42.691Z,15.28
2019-01-23T04:41:23.308Z,15.29
2019-01-23T04:42:03.937Z,15.29
2019-01-23T04:42:44.550Z,15.31
2019-01-23T04:43:25.204Z,15.29
2019-01-23T04:44:05.853Z,15.28
2019-01-23T04:44:46.488Z,15.31
2019-01-23T04:45:27.122Z,15.29
2019-01-23T04:46:07.728Z,15.31
2019-01-23T04:46:48.354Z,15.34
2019-01-23T04:47:28.978Z,15.34
2019-01-23T04:48:09.592Z,15.35
2019-01-23T04:48:50.202Z,15.31
2019-01-23T04:49:30.848Z,15.29
2019-01-23T04:50:11.458Z,15.34
2019-01-23T04:50:52.067Z,15.29
2019-01-23T04:51:32.668Z,15.29
2019-01-23T04:52:13.276Z,15.36
2019-01-23T04:52:53.886Z,15.29
2019-01-23T04:53:34.532Z,15.28
2019-01-23T04:54:15.165Z,15.28
2019-01-23T04:54:55.781Z,15.32
2019-01-23T04:55:36.392Z,15.31
2019-01-23T04:56:17.019Z,15.28
2019-01-23T04:56:57.628Z,15.28
2019-01-23T04:57:38.230Z,15.31
2019-01-23T04:58:18.846Z,15.31
2019-01-23T04:58:59.493Z,15.34
2019-01-23T04:59:46.608Z,15.31
2019-01-23T05:00:20.752Z,15.29
2019-01-23T05:01:01.362Z,15.31
2019-01-23T05:01:41.961Z,15.36
2019-01-23T05:02:22.558Z,15.32
2019-01-23T05:03:03.162Z,15.28
2019-01-23T05:03:43.760Z,15.32
2019-01-23T05:04:24.384Z,15.32
2019-01-23T05:05:05.012Z,15.31
2019-01-23T05:05:45.646Z,15.31
2019-01-23T05:06:26.275Z,15.32
2019-01-23T05:07:06.907Z,15.29
2019-01-23T05:07:47.524Z,15.31
2019-01-23T05:08:28.124Z,15.31
2019-01-23T05:09:08.730Z,15.34
2019-01-23T05:09:49.375Z,15.31
2019-01-23T05:10:30.007Z,15.32
2019-01-23T05:11:10.627Z,15.31
2019-01-23T05:11:51.246Z,15.28
2019-01-23T05:12:31.851Z,15.34
2019-01-23T05:13:12.488Z,15.31
2019-01-23T05:13:53.096Z,15.35
2019-01-23T05:14:33.704Z,15.31
2019-01-23T05:15:14.319Z,15.31
2019-01-23T05:15:54.972Z,15.35
2019-01-23T05:16:35.572Z,15.27
2019-01-23T05:17:16.202Z,15.29
2019-01-23T05:17:56.800Z,15.32
2019-01-23T05:18:37.411Z,15.28
2019-01-23T05:19:18.016Z,15.28
2019-01-23T05:19:58.632Z,15.31
2019-01-23T05:20:39.264Z,15.31
2019-01-23T05:21:19.871Z,15.34
2019-01-23T05:22:00.492Z,15.29
2019-01-23T05:22:41.120Z,15.28
2019-01-23T05:23:21.730Z,15.29
2019-01-23T05:24:02.344Z,15.32
2019-01-23T05:24:42.974Z,15.31
2019-01-23T05:25:23.593Z,15.31
2019-01-23T05:26:04.195Z,15.29
2019-01-23T05:26:44.804Z,15.31
2019-01-23T05:27:25.404Z,15.31
2019-01-23T05:28:06.042Z,15.34
2019-01-23T05:28:46.653Z,15.34
2019-01-23T05:29:27.256Z,15.28
2019-01-23T05:30:07.863Z,15.29
2019-01-23T05:30:48.467Z,15.28
2019-01-23T05:31:29.082Z,15.34
2019-01-23T05:32:09.702Z,15.28
2019-01-23T05:32:50.307Z,15.32
2019-01-23T05:33:30.918Z,15.28
2019-01-23T05:34:11.525Z,15.32
2019-01-23T05:34:52.126Z,15.25
2019-01-23T05:35:32.734Z,15.31
2019-01-23T05:36:13.350Z,15.29
2019-01-23T05:36:53.989Z,15.34
2019-01-23T05:37:34.567Z,15.28
2019-01-23T05:38:15.172Z,15.32
2019-01-23T05:38:55.790Z,15.34
2019-01-23T05:39:36.397Z,15.31
2019-01-23T05:40:17.017Z,15.34
2019-01-23T05:40:57.631Z,15.34
2019-01-23T05:41:38.244Z,15.29
2019-01-23T05:42:18.845Z,15.31
2019-01-23T05:42:59.462Z,15.28
2019-01-23T05:43:40.084Z,15.32
2019-01-23T05:44:20.688Z,15.31
2019-01-23T05:45:01.352Z,15.27
2019-01-23T05:45:41.956Z,15.29
2019-01-23T05:46:22.560Z,15.31
2019-01-23T05:47:03.192Z,15.35
2019-01-23T05:47:43.797Z,15.28
2019-01-23T05:48:24.406Z,15.34
2019-01-23T05:49:05.014Z,15.34
2019-01-23T05:49:45.618Z,15.31
2019-01-23T05:50:26.240Z,15.28
2019-01-23T05:51:06.868Z,15.32
2019-01-23T05:51:47.471Z,15.31
2019-01-23T05:52:28.081Z,15.32
2019-01-23T05:53:08.704Z,15.29
2019-01-23T05:53:49.343Z,15.34
2019-01-23T05:54:29.961Z,15.27
2019-01-23T05:55:10.576Z,15.29
2019-01-23T05:55:51.194Z,15.28
2019-01-23T05:56:31.812Z,15.36
2019-01-23T05:57:12.440Z,15.32
2019-01-23T05:57:53.048Z,15.29
2019-01-23T05:58:33.651Z,15.28
2019-01-23T05:59:14.255Z,15.31
2019-01-23T06:00:02.058Z,15.31
2019-01-23T06:00:35.497Z,15.27
2019-01-23T06:01:16.141Z,15.29
2019-01-23T06:01:56.744Z,15.28
2019-01-23T06:02:37.350Z,15.28
2019-01-23T06:03:17.964Z,15.29
2019-01-23T06:03:58.599Z,15.28
2019-01-23T06:04:39.214Z,15.32
2019-01-23T06:05:19.859Z,15.32
2019-01-23T06:06:00.475Z,15.31
2019-01-23T06:06:41.101Z,15.34
2019-01-23T06:07:21.723Z,15.27
2019-01-23T06:08:02.406Z,15.34
2019-01-23T06:08:43.021Z,15.31
2019-01-23T06:09:23.636Z,15.28
2019-01-23T06:10:04.257Z,15.25
2019-01-23T06:10:44.874Z,15.28
2019-01-23T06:11:25.493Z,15.28
2019-01-23T06:12:06.093Z,15.31
2019-01-23T06:12:46.685Z,15.29
2019-01-23T06:13:27.288Z,15.31
2019-01-23T06:14:07.892Z,15.28
2019-01-23T06:14:48.495Z,15.34
2019-01-23T06:15:29.096Z,15.25
2019-01-23T06:16:09.710Z,15.28
2019-01-23T06:16:50.313Z,15.31
2019-01-23T06:17:30.934Z,15.29
2019-01-23T06:18:11.547Z,15.25
2019-01-23T06:18:52.193Z,15.28
2019-01-23T06:19:32.812Z,15.27
2019-01-23T06:20:13.429Z,15.29
2019-01-23T06:20:55.575Z,15.25
2019-01-23T06:21:34.663Z,15.25
2019-01-23T06:22:15.274Z,15.23
2019-01-23T06:22:55.932Z,15.28
2019-01-23T06:23:36.556Z,15.32
2019-01-23T06:24:17.175Z,15.25
2019-01-23T06:24:57.791Z,15.29
2019-01-23T06:25:38.395Z,15.28
2019-01-23T06:26:19.127Z,15.29
2019-01-23T06:26:59.817Z,15.32
2019-01-23T06:27:40.459Z,15.23
2019-01-23T06:28:21.073Z,15.27
2019-01-23T06:29:01.679Z,15.29
2019-01-23T06:29:42.301Z,15.29
2019-01-23T06:30:22.958Z,15.34
2019-01-23T06:31:03.557Z,15.28
2019-01-23T06:31:44.178Z,15.31
2019-01-23T06:32:24.781Z,15.23
2019-01-23T06:33:05.397Z,15.32
2019-01-23T06:33:46.008Z,15.21
2019-01-23T06:34:26.626Z,15.32
2019-01-23T06:35:07.268Z,15.25
2019-01-23T06:35:47.897Z,15.28
2019-01-23T06:36:28.501Z,15.32
2019-01-23T06:37:09.119Z,15.32
2019-01-23T06:37:49.720Z,15.25
2019-01-23T06:38:30.360Z,15.25
2019-01-23T06:39:10.927Z,15.21
2019-01-23T06:39:51.573Z,15.25
2019-01-23T06:40:32.169Z,15.2
2019-01-23T06:41:12.763Z,15.28
2019-01-23T06:41:53.372Z,15.32
2019-01-23T06:42:33.997Z,15.27
2019-01-23T06:43:14.608Z,15.23
2019-01-23T06:43:55.215Z,15.2
2019-01-23T06:44:35.808Z,15.23
2019-01-23T06:45:16.420Z,15.27
2019-01-23T06:45:57.038Z,15.29
2019-01-23T06:46:37.649Z,15.32
2019-01-23T06:47:18.257Z,15.27
2019-01-23T06:47:58.883Z,15.28
2019-01-23T06:48:39.489Z,15.29
2019-01-23T06:49:20.101Z,15.31
2019-01-23T06:50:00.733Z,15.27
2019-01-23T06:50:41.309Z,15.25
2019-01-23T06:51:21.939Z,15.21
2019-01-23T06:52:02.599Z,15.27
2019-01-23T06:52:43.227Z,15.28
2019-01-23T06:53:23.869Z,15.21
2019-01-23T06:54:04.531Z,15.27
2019-01-23T06:54:45.163Z,15.27
2019-01-23T06:55:25.823Z,15.23
2019-01-23T06:56:06.435Z,15.23
2019-01-23T06:56:47.034Z,15.28
2019-01-23T06:57:27.638Z,15.32
2019-01-23T06:58:08.253Z,15.28
2019-01-23T06:58:48.855Z,15.27
2019-01-23T06:59:29.473Z,15.34
2019-01-23T07:00:10.079Z,15.25
2019-01-23T07:00:50.687Z,15.32
2019-01-23T07:01:31.301Z,15.29
2019-01-23T07:02:11.909Z,15.23
2019-01-23T07:02:52.505Z,15.29
2019-01-23T07:03:33.112Z,15.32
2019-01-23T07:04:13.731Z,15.32
2019-01-23T07:04:54.357Z,15.28
2019-01-23T07:05:34.958Z,15.32
2019-01-23T07:06:15.569Z,15.29
2019-01-23T07:06:56.170Z,15.31
2019-01-23T07:07:36.781Z,15.28
2019-01-23T07:08:17.390Z,15.25
2019-01-23T07:08:57.997Z,15.34
2019-01-23T07:09:38.637Z,15.28
2019-01-23T07:10:19.277Z,15.32
2019-01-23T07:10:59.874Z,15.29
2019-01-23T07:11:40.474Z,15.23
2019-01-23T07:12:21.078Z,15.34
2019-01-23T07:13:01.679Z,15.29
2019-01-23T07:13:42.297Z,15.31
2019-01-23T07:14:22.889Z,15.29
2019-01-23T07:15:03.495Z,15.31
2019-01-23T07:15:44.111Z,15.32
2019-01-23T07:16:24.743Z,15.31
2019-01-23T07:17:05.347Z,15.31
2019-01-23T07:17:45.947Z,15.31
2019-01-23T07:18:26.573Z,15.28
2019-01-23T07:19:07.207Z,15.36
2019-01-23T07:19:47.817Z,15.31
2019-01-23T07:20:28.450Z,15.32
2019-01-23T07:21:09.061Z,15.32
2019-01-23T07:21:49.674Z,15.31
2019-01-23T07:22:30.288Z,15.28
2019-01-23T07:23:10.925Z,15.34
2019-01-23T07:23:51.522Z,15.29
2019-01-23T07:24:32.148Z,15.32
2019-01-23T07:25:12.778Z,15.28
2019-01-23T07:25:53.511Z,15.31
2019-01-23T07:26:34.077Z,15.31
2019-01-23T07:27:14.683Z,15.31
2019-01-23T07:27:55.285Z,15.35
2019-01-23T07:28:35.884Z,15.31
2019-01-23T07:29:16.483Z,15.31
2019-01-23T07:29:57.091Z,15.28
2019-01-23T07:30:37.697Z,15.28
2019-01-23T07:31:18.303Z,15.35
2019-01-23T07:31:58.913Z,15.32
2019-01-23T07:32:39.511Z,15.34
2019-01-23T07:33:20.119Z,15.29
2019-01-23T07:34:00.733Z,15.27
2019-01-23T07:34:41.359Z,15.31
2019-01-23T07:35:21.962Z,15.34
2019-01-23T07:36:02.557Z,15.29
2019-01-23T07:36:43.171Z,15.29
2019-01-23T07:37:23.783Z,15.32
2019-01-23T07:38:04.417Z,15.32
2019-01-23T07:38:45.112Z,15.28
2019-01-23T07:39:25.736Z,15.39
2019-01-23T07:40:06.337Z,15.32
2019-01-23T07:40:46.955Z,15.31
2019-01-23T07:41:27.590Z,15.29
2019-01-23T07:42:08.242Z,15.39
2019-01-23T07:42:48.845Z,15.34
2019-01-23T07:43:29.455Z,15.31
2019-01-23T07:44:10.060Z,15.32
2019-01-23T07:44:50.653Z,15.41
2019-01-23T07:45:31.255Z,15.32
2019-01-23T07:46:11.862Z,15.38
2019-01-23T07:46:52.465Z,15.43
2019-01-23T07:47:33.071Z,15.34
2019-01-23T07:48:13.679Z,15.41
2019-01-23T07:48:54.299Z,15.41
2019-01-23T07:49:34.904Z,15.41
2019-01-23T07:50:15.519Z,15.41
2019-01-23T07:50:56.139Z,15.43
2019-01-23T07:51:36.759Z,15.41
2019-01-23T07:52:17.365Z,15.41
2019-01-23T07:52:57.963Z,15.39
2019-01-23T07:53:38.591Z,15.41
2019-01-23T07:54:20.209Z,15.43
2019-01-23T07:55:02.016Z,15.43
2019-01-23T07:55:42.859Z,15.41
2019-01-23T07:56:23.524Z,15.38
2019-01-23T07:57:04.105Z,15.41
2019-01-23T07:57:44.727Z,15.35
2019-01-23T07:58:25.359Z,15.35
2019-01-23T07:59:05.957Z,15.41
2019-01-23T07:59:46.585Z,15.41
2019-01-23T08:00:31.183Z,15.41
2019-01-23T08:01:07.803Z,15.39
2019-01-23T08:01:48.427Z,15.44
2019-01-23T08:02:29.031Z,15.41
2019-01-23T08:03:09.673Z,15.44
2019-01-23T08:03:50.268Z,15.5
2019-01-23T08:04:30.873Z,15.47
2019-01-23T08:05:11.507Z,15.46
2019-01-23T08:05:52.185Z,15.44
2019-01-23T08:06:32.840Z,15.51
2019-01-23T08:07:13.449Z,15.41
2019-01-23T08:07:54.114Z,15.47
2019-01-23T08:08:34.733Z,15.5
2019-01-23T08:09:15.351Z,15.49
2019-01-23T08:09:55.961Z,15.44
2019-01-23T08:10:36.589Z,15.47
2019-01-23T08:11:17.243Z,15.41
2019-01-23T08:11:57.851Z,15.39
2019-01-23T08:12:38.469Z,15.49
2019-01-23T08:13:19.183Z,15.53
2019-01-23T08:13:59.772Z,15.44
2019-01-23T08:14:41.832Z,15.41
2019-01-23T08:15:20.927Z,15.49
2019-01-23T08:16:01.527Z,15.41
2019-01-23T08:16:42.141Z,15.49
2019-01-23T08:17:22.743Z,15.46
2019-01-23T08:18:03.357Z,15.53
2019-01-23T08:18:43.980Z,15.5
2019-01-23T08:19:24.590Z,15.56
2019-01-23T08:20:05.203Z,15.56
2019-01-23T08:20:45.815Z,15.46
2019-01-23T08:21:26.439Z,15.54
2019-01-23T08:22:07.031Z,15.59
2019-01-23T08:22:47.665Z,15.56
2019-01-23T08:23:28.297Z,15.5
2019-01-23T08:24:08.893Z,15.6
2019-01-23T08:24:49.548Z,15.57
2019-01-23T08:25:30.147Z,15.56
2019-01-23T08:26:10.752Z,15.56
2019-01-23T08:26:51.370Z,15.57
2019-01-23T08:27:31.968Z,15.6
2019-01-23T08:28:12.571Z,15.6
2019-01-23T08:28:53.184Z,15.6
2019-01-23T08:29:33.796Z,15.64
2019-01-23T08:30:14.403Z,15.57
2019-01-23T08:30:54.999Z,15.62
2019-01-23T08:31:35.612Z,15.54
2019-01-23T08:32:16.213Z,15.54
2019-01-23T08:32:56.863Z,15.6
2019-01-23T08:33:37.495Z,15.6
2019-01-23T08:34:18.121Z,15.65
2019-01-23T08:34:58.745Z,15.64
2019-01-23T08:35:39.343Z,15.62
2019-01-23T08:36:19.945Z,15.64
2019-01-23T08:37:00.573Z,15.64
2019-01-23T08:37:41.187Z,15.64
2019-01-23T08:38:21.793Z,15.57
2019-01-23T08:39:02.399Z,15.64
2019-01-23T08:39:42.997Z,15.65
2019-01-23T08:40:23.628Z,15.64
2019-01-23T08:41:04.257Z,15.68
2019-01-23T08:41:44.871Z,15.69
2019-01-23T08:42:25.469Z,15.62
2019-01-23T08:43:06.079Z,15.71
2019-01-23T08:43:46.677Z,15.6
2019-01-23T08:44:27.305Z,15.69
2019-01-23T08:45:07.931Z,15.69